createdAt,value
2022-08-05T00:01:27.773Z,79.30
2022-08-05T00:03:56.737Z,81.30
2022-08-05T00:06:32.329Z,82.50
2022-08-05T00:09:00.890Z,83.40
2022-08-05T00:11:34.453Z,84.80
2022-08-05T00:14:12.955Z,85.90
2022-08-05T00:16:52.347Z,86.80
2022-08-05T00:19:25.064Z,88.00
2022-08-05T00:22:01.253Z,90.20
2022-08-05T00:24:30.999Z,91.10
2022-08-05T00:26:59.271Z,91.70
2022-08-05T00:29:27.575Z,92.30
2022-08-05T00:32:12.809Z,92.80
2022-08-05T00:35:05.172Z,93.20
2022-08-05T00:37:35.428Z,93.60
2022-08-05T00:40:27.329Z,93.90
2022-08-05T00:42:57.683Z,94.10
2022-08-05T00:45:28.335Z,94.50
2022-08-05T00:48:08.358Z,94.90
2022-08-05T00:50:36.959Z,95.50
2022-08-05T00:53:03.763Z,95.80
2022-08-05T00:55:43.767Z,96.40
2022-08-05T00:58:19.176Z,97.00
2022-08-05T01:00:47.594Z,97.40
2022-08-05T01:03:22.930Z,97.50
2022-08-05T01:05:51.402Z,97.60
2022-08-05T01:08:39.861Z,98.30
2022-08-05T01:11:22.213Z,98.10
2022-08-05T01:14:09.948Z,98.10
2022-08-05T01:16:50.967Z,97.90
2022-08-05T01:19:22.315Z,97.90
2022-08-05T01:22:43.020Z,97.80
2022-08-05T01:25:13.837Z,97.50
2022-08-05T01:28:00.495Z,97.60
2022-08-05T01:30:34.534Z,97.20
2022-08-05T01:33:08.428Z,97.20
2022-08-05T01:35:51.153Z,97.30
2022-08-05T01:38:26.871Z,97.50
2022-08-05T01:40:58.750Z,97.60
2022-08-05T01:43:28.024Z,97.60
2022-08-05T01:45:57.157Z,97.80
2022-08-05T01:48:27.156Z,97.70
2022-08-05T01:50:56.665Z,97.60
2022-08-05T01:53:54.538Z,97.50
2022-08-05T01:58:13.648Z,97.60
2022-08-05T01:59:06.506Z,97.70
2022-08-05T02:01:40.356Z,98.00
2022-08-05T02:04:10.343Z,98.30
2022-08-05T02:06:39.118Z,98.70
2022-08-05T02:09:07.244Z,99.90
2022-08-05T02:11:52.600Z,99.90
2022-08-05T02:14:39.303Z,99.90
2022-08-05T02:18:12.509Z,99.90
2022-08-05T02:20:07.620Z,99.90
2022-08-05T02:22:41.773Z,99.90
2022-08-05T02:25:16.682Z,99.90
2022-08-05T02:27:59.017Z,99.90
2022-08-05T02:30:54.258Z,99.90
2022-08-05T02:33:24.608Z,99.90
2022-08-05T02:36:04.984Z,99.90
2022-08-05T02:38:35.366Z,99.90
2022-08-05T02:41:14.543Z,99.90
2022-08-05T02:44:02.605Z,99.90
2022-08-05T02:46:53.437Z,99.90
2022-08-05T02:49:24.363Z,99.90
2022-08-05T02:52:03.781Z,99.90
2022-08-05T02:54:35.602Z,99.90
2022-08-05T02:57:10.452Z,99.90
2022-08-05T02:59:55.462Z,99.90
2022-08-05T03:02:30.782Z,99.90
2022-08-05T03:04:59.295Z,99.90
2022-08-05T03:08:00.157Z,99.90
2022-08-05T03:10:24.564Z,99.90
2022-08-05T03:12:52.846Z,99.90
2022-08-05T03:15:23.368Z,99.90
2022-08-05T03:17:59.445Z,99.90
2022-08-05T03:20:26.954Z,99.90
2022-08-05T03:22:57.294Z,99.90
2022-08-05T03:26:02.589Z,99.90
2022-08-05T03:28:14.290Z,99.90
2022-08-05T03:30:47.292Z,99.90
2022-08-05T03:33:14.229Z,99.90
2022-08-05T03:35:42.244Z,99.90
2022-08-05T03:38:12.717Z,99.90
2022-08-05T03:40:45.098Z,99.90
2022-08-05T03:43:58.541Z,99.90
2022-08-05T03:46:03.107Z,99.90
2022-08-05T03:48:30.576Z,99.90
2022-08-05T03:52:48.836Z,99.90
2022-08-05T03:55:49.881Z,99.90
2022-08-05T03:56:58.883Z,99.90
2022-08-05T03:59:47.723Z,99.90
2022-08-05T04:02:37.584Z,99.90
2022-08-05T04:05:09.673Z,99.90
2022-08-05T04:07:57.287Z,99.90
2022-08-05T04:10:27.527Z,99.90
2022-08-05T04:12:58.966Z,99.90
2022-08-05T04:15:27.848Z,99.90
2022-08-05T04:18:03.885Z,99.90
2022-08-05T04:20:33.948Z,99.90
2022-08-05T04:23:00.674Z,99.90
2022-08-05T04:25:56.737Z,99.90
2022-08-05T04:28:15.026Z,99.90
2022-08-05T04:30:42.911Z,99.90
2022-08-05T04:33:09.890Z,99.90
2022-08-05T04:36:09.468Z,99.90
2022-08-05T04:38:39.228Z,99.90
2022-08-05T04:41:09.501Z,99.90
2022-08-05T04:43:48.131Z,99.90
2022-08-05T04:46:28.300Z,99.90
2022-08-05T04:48:57.967Z,99.90
2022-08-05T04:51:25.755Z,99.90
2022-08-05T04:53:57.391Z,99.90
2022-08-05T04:56:35.035Z,99.90
2022-08-05T04:59:21.964Z,99.90
2022-08-05T05:02:05.725Z,99.90
2022-08-05T05:04:35.177Z,99.90
2022-08-05T05:07:05.127Z,99.90
2022-08-05T05:09:37.437Z,99.90
2022-08-05T05:12:05.316Z,99.90
2022-08-05T05:14:33.097Z,99.90
2022-08-05T05:17:03.703Z,99.90
2022-08-05T05:19:44.223Z,99.90
2022-08-05T05:22:23.549Z,99.90
2022-08-05T05:24:59.025Z,99.90
2022-08-05T05:27:44.943Z,99.90
2022-08-05T05:30:31.341Z,99.90
2022-08-05T05:33:14.066Z,99.90
2022-08-05T05:35:46.795Z,99.90
2022-08-05T05:38:15.201Z,99.90
2022-08-05T05:40:54.078Z,99.90
2022-08-05T05:43:54.065Z,99.90
2022-08-05T05:46:15.868Z,99.90
2022-08-05T05:48:48.174Z,99.90
2022-08-05T05:51:22.963Z,99.90
2022-08-05T05:53:57.960Z,99.90
2022-08-05T05:56:32.240Z,99.90
2022-08-05T05:59:05.276Z,99.90
2022-08-05T06:01:38.181Z,99.90
2022-08-05T06:04:14.430Z,99.90
2022-08-05T06:06:47.377Z,99.90
2022-08-05T06:09:17.280Z,99.90
2022-08-05T06:12:01.035Z,99.90
2022-08-05T06:14:33.418Z,99.90
2022-08-05T06:17:22.030Z,99.90
2022-08-05T06:19:56.555Z,99.90
2022-08-05T06:22:28.956Z,99.90
2022-08-05T06:24:55.790Z,99.90
2022-08-05T06:28:11.255Z,99.90
2022-08-05T06:30:17.785Z,99.90
2022-08-05T06:32:47.027Z,99.90
2022-08-05T06:35:15.417Z,99.90
2022-08-05T06:37:57.394Z,99.90
2022-08-05T06:40:27.929Z,99.90
2022-08-05T06:42:57.883Z,99.90
2022-08-05T06:45:29.412Z,99.90
2022-08-05T06:48:53.651Z,99.90
2022-08-05T06:50:58.625Z,99.90
2022-08-05T06:53:28.237Z,99.90
2022-08-05T06:56:00.129Z,99.90
2022-08-05T06:58:29.916Z,99.90
2022-08-05T07:01:03.596Z,99.90
2022-08-05T07:03:32.821Z,99.90
2022-08-05T07:06:05.486Z,99.90
2022-08-05T07:08:41.992Z,99.90
2022-08-05T07:11:15.378Z,99.90
2022-08-05T07:14:01.709Z,99.90
2022-08-05T07:17:58.837Z,99.90
2022-08-05T07:22:28.443Z,99.90
2022-08-05T07:25:22.182Z,99.90
2022-08-05T07:27:57.251Z,99.90
2022-08-05T07:30:32.776Z,99.90
2022-08-05T07:33:05.520Z,99.90
2022-08-05T07:36:02.656Z,99.90
2022-08-05T07:38:33.677Z,99.90
2022-08-05T07:42:06.830Z,99.90
2022-08-05T07:44:02.554Z,99.90
2022-08-05T07:46:32.304Z,99.90
2022-08-05T07:49:05.775Z,99.90
2022-08-05T07:51:41.022Z,99.90
2022-08-05T07:54:23.193Z,99.90
2022-08-05T07:57:13.325Z,99.90
2022-08-05T07:59:41.153Z,99.90
2022-08-05T08:02:15.788Z,99.90
2022-08-05T08:04:45.500Z,99.90
2022-08-05T08:07:13.449Z,99.90
2022-08-05T08:09:40.440Z,99.90
2022-08-05T08:12:35.210Z,99.90
2022-08-05T08:14:54.208Z,99.90
2022-08-05T08:17:21.884Z,99.90
2022-08-05T08:20:43.360Z,99.90
2022-08-05T08:22:36.039Z,99.90
2022-08-05T08:25:03.921Z,99.90
2022-08-05T08:27:47.556Z,99.90
2022-08-05T08:30:33.954Z,99.90
2022-08-05T08:33:13.609Z,99.90
2022-08-05T08:35:53.860Z,99.90
2022-08-05T08:38:35.987Z,99.90
2022-08-05T08:41:14.139Z,99.90
2022-08-05T08:45:19.917Z,99.90
2022-08-05T08:46:31.392Z,99.90
2022-08-05T08:49:08.354Z,99.90
2022-08-05T08:52:05.711Z,99.90
2022-08-05T08:54:42.275Z,99.90
2022-08-05T08:57:11.354Z,99.90
2022-08-05T08:59:41.715Z,99.90
2022-08-05T09:02:14.727Z,99.90
2022-08-05T09:05:16.678Z,99.90
2022-08-05T09:07:39.803Z,99.90
2022-08-05T09:10:27.912Z,99.90
2022-08-05T09:13:04.503Z,99.90
2022-08-05T09:15:32.294Z,99.90
2022-08-05T09:18:06.178Z,99.90
2022-08-05T09:20:37.708Z,99.90
2022-08-05T09:23:07.828Z,99.90
2022-08-05T09:26:02.328Z,99.90
2022-08-05T09:28:32.092Z,99.90
2022-08-05T09:31:23.265Z,99.90
2022-08-05T09:34:05.206Z,99.90
2022-08-05T09:36:56.036Z,99.90
2022-08-05T09:39:41.518Z,99.90
2022-08-05T09:42:23.080Z,99.90
2022-08-05T09:44:55.929Z,99.90
2022-08-05T09:47:26.010Z,99.90
2022-08-05T09:50:02.269Z,99.90
2022-08-05T09:52:30.272Z,99.90
2022-08-05T09:55:57.130Z,99.90
2022-08-05T09:57:58.540Z,99.90
2022-08-05T10:00:26.839Z,99.90
2022-08-05T10:02:54.955Z,99.90
2022-08-05T10:05:27.658Z,99.90
2022-08-05T10:08:35.141Z,99.90
2022-08-05T10:10:50.181Z,99.90
2022-08-05T10:13:45.731Z,99.90
2022-08-05T10:16:41.643Z,99.90
2022-08-05T10:19:23.715Z,99.90
2022-08-05T10:22:09.058Z,99.90
2022-08-05T10:24:42.596Z,99.90
2022-08-05T10:27:14.864Z,99.90
2022-08-05T10:30:41.423Z,99.90
2022-08-05T10:32:54.653Z,99.90
2022-08-05T10:35:19.369Z,99.90
2022-08-05T10:37:47.679Z,99.90
2022-08-05T10:40:51.842Z,99.90
2022-08-05T10:43:45.660Z,99.90
2022-08-05T10:46:16.284Z,99.90
2022-08-05T10:48:57.381Z,99.90
2022-08-05T10:51:28.740Z,99.90
2022-08-05T10:54:01.842Z,99.90
2022-08-05T10:56:46.094Z,99.90
2022-08-05T11:00:01.784Z,99.90
2022-08-05T11:02:34.987Z,99.90
2022-08-05T11:05:05.542Z,99.20
2022-08-05T11:08:02.419Z,99.50
2022-08-05T11:10:27.655Z,99.90
2022-08-05T11:13:01.244Z,99.90
2022-08-05T11:16:00.099Z,99.90
2022-08-05T11:18:35.176Z,99.90
2022-08-05T11:21:11.415Z,99.90
2022-08-05T11:24:05.316Z,99.90
2022-08-05T11:26:37.949Z,99.90
2022-08-05T11:29:13.311Z,99.90
2022-08-05T11:31:57.115Z,99.90
2022-08-05T11:34:39.597Z,99.90
2022-08-05T11:38:30.406Z,99.30
2022-08-05T11:40:00.397Z,98.70
2022-08-05T11:42:33.156Z,97.30
2022-08-05T11:45:14.248Z,96.90
2022-08-05T11:47:54.727Z,96.50
2022-08-05T11:50:22.207Z,96.60
2022-08-05T11:52:52.019Z,96.60
2022-08-05T11:55:21.355Z,97.30
2022-08-05T11:58:08.176Z,97.50
2022-08-05T12:00:41.407Z,97.20
2022-08-05T12:03:29.392Z,96.00
2022-08-05T12:06:06.665Z,94.70
2022-08-05T12:08:50.062Z,93.80
2022-08-05T12:11:40.104Z,93.10
2022-08-05T12:14:10.318Z,92.40
2022-08-05T12:16:46.834Z,91.90
2022-08-05T12:20:27.627Z,91.50
2022-08-05T12:22:05.972Z,90.90
2022-08-05T12:24:40.660Z,89.20
2022-08-05T12:27:32.902Z,88.90
2022-08-05T12:30:07.306Z,88.50
2022-08-05T12:32:56.343Z,87.70
2022-08-05T12:35:24.506Z,87.70
2022-08-05T12:38:07.217Z,88.20
2022-08-05T12:40:37.833Z,87.70
2022-08-05T12:43:10.401Z,89.10
2022-08-05T12:45:50.049Z,90.20
2022-08-05T12:48:32.380Z,90.90
2022-08-05T12:51:21.851Z,91.50
2022-08-05T12:54:03.514Z,93.00
2022-08-05T12:56:35.188Z,94.10
2022-08-05T12:59:21.124Z,94.00
2022-08-05T13:02:07.462Z,93.90
2022-08-05T13:04:41.867Z,93.80
2022-08-05T13:07:56.047Z,94.10
2022-08-05T13:10:13.861Z,94.10
2022-08-05T13:12:51.209Z,94.70
2022-08-05T13:15:41.957Z,94.90
2022-08-05T13:18:20.169Z,95.40
2022-08-05T13:20:48.938Z,96.30
2022-08-05T13:23:18.078Z,96.90
2022-08-05T13:25:52.623Z,97.70
2022-08-05T13:28:27.288Z,98.10
2022-08-05T13:30:54.155Z,98.50
2022-08-05T13:34:23.298Z,98.30
2022-08-05T13:36:09.117Z,98.30
2022-08-05T13:38:42.561Z,98.40
2022-08-05T13:41:11.747Z,98.90
2022-08-05T13:43:45.410Z,99.20
2022-08-05T13:46:44.002Z,98.90
2022-08-05T13:49:11.742Z,99.20
2022-08-05T13:51:45.794Z,98.80
2022-08-05T13:54:15.123Z,98.70
2022-08-05T13:56:45.074Z,98.00
2022-08-05T13:59:19.625Z,98.10
2022-08-05T14:01:57.754Z,98.40
2022-08-05T14:04:53.348Z,98.10
2022-08-05T14:07:25.376Z,95.30
2022-08-05T14:09:53.844Z,94.40
2022-08-05T14:12:32.706Z,94.60
2022-08-05T14:14:59.995Z,94.40
2022-08-05T14:17:28.253Z,94.50
2022-08-05T14:20:00.842Z,94.60
2022-08-05T14:22:30.508Z,95.30
2022-08-05T14:25:01.977Z,96.40
2022-08-05T14:27:33.059Z,98.00
2022-08-05T14:29:59.752Z,98.90
2022-08-05T14:32:28.099Z,99.90
2022-08-05T14:34:56.908Z,99.90
2022-08-05T14:37:45.632Z,99.90
2022-08-05T14:40:14.230Z,99.00
2022-08-05T14:42:43.848Z,99.60
2022-08-05T14:45:10.983Z,99.90
2022-08-05T14:48:03.268Z,99.90
2022-08-05T14:50:25.418Z,99.90
2022-08-05T14:52:58.322Z,99.90
2022-08-05T14:55:38.460Z,99.90
2022-08-05T14:58:11.585Z,99.90
2022-08-05T15:00:59.374Z,99.90
2022-08-05T15:03:33.718Z,99.90
2022-08-05T15:06:07.608Z,99.90
2022-08-05T15:08:59.118Z,99.90
2022-08-05T15:11:51.697Z,99.90
2022-08-05T15:14:33.523Z,99.90
2022-08-05T15:17:03.951Z,99.90
2022-08-05T15:19:31.778Z,99.90
2022-08-05T15:22:01.054Z,99.90
2022-08-05T15:24:29.441Z,99.90
2022-08-05T15:26:57.278Z,99.90
2022-08-05T15:29:29.731Z,99.90
2022-08-05T15:32:02.356Z,99.90
2022-08-05T15:34:33.371Z,99.90
2022-08-05T15:37:06.999Z,99.90
2022-08-05T15:41:01.711Z,99.90
2022-08-05T15:42:53.575Z,99.90
2022-08-05T15:45:16.134Z,99.90
2022-08-05T15:47:44.047Z,99.90
2022-08-05T15:50:15.149Z,99.90
2022-08-05T15:52:53.149Z,99.90
2022-08-05T15:55:25.113Z,99.90
2022-08-05T15:58:09.178Z,99.90
2022-08-05T16:00:57.049Z,99.90
2022-08-05T16:03:30.612Z,99.90
2022-08-05T16:05:59.690Z,99.90
2022-08-05T16:08:30.584Z,99.90
2022-08-05T16:10:58.614Z,99.90
2022-08-05T16:13:34.193Z,99.90
2022-08-05T16:16:03.582Z,99.90
2022-08-05T16:18:32.776Z,99.90
2022-08-05T16:21:04.385Z,99.90
2022-08-05T16:23:54.260Z,99.90
2022-08-05T16:26:26.235Z,99.90
2022-08-05T16:28:54.513Z,99.90
2022-08-05T16:31:21.879Z,99.90
2022-08-05T16:33:49.255Z,99.90
2022-08-05T16:36:20.186Z,99.90
2022-08-05T16:38:54.921Z,99.90
2022-08-05T16:42:14.625Z,99.90
2022-08-05T16:44:11.531Z,99.90
2022-08-05T16:46:40.931Z,99.90
2022-08-05T16:49:10.133Z,99.90
2022-08-05T16:51:42.824Z,99.90
2022-08-05T16:54:25.713Z,99.90
2022-08-05T16:56:54.190Z,99.90
2022-08-05T16:59:20.943Z,99.90
2022-08-05T17:01:52.719Z,99.90
2022-08-05T17:04:23.741Z,99.90
2022-08-05T17:06:54.172Z,99.90
2022-08-05T17:09:21.215Z,99.90
2022-08-05T17:11:56.115Z,99.90
2022-08-05T17:14:37.749Z,99.90
2022-08-05T17:17:14.386Z,99.90
2022-08-05T17:19:46.166Z,99.90
2022-08-05T17:22:25.113Z,99.90
2022-08-05T17:24:58.270Z,99.90
2022-08-05T17:27:33.549Z,99.90
2022-08-05T17:30:02.400Z,99.90
2022-08-05T17:32:29.927Z,99.90
2022-08-05T17:34:58.121Z,99.90
2022-08-05T17:37:39.567Z,99.90
2022-08-05T17:40:14.819Z,99.90
2022-08-05T17:42:50.614Z,99.90
2022-08-05T17:45:24.902Z,99.90
2022-08-05T17:47:55.097Z,99.90
2022-08-05T17:50:28.150Z,99.90
2022-08-05T17:53:00.462Z,99.90
2022-08-05T17:55:37.911Z,99.90
2022-08-05T17:58:13.349Z,99.90
2022-08-05T18:00:47.532Z,99.90
2022-08-05T18:03:59.231Z,99.90
2022-08-05T18:06:11.820Z,99.90
2022-08-05T18:08:44.813Z,99.90
2022-08-05T18:11:23.274Z,99.90
2022-08-05T18:13:53.298Z,99.90
2022-08-05T18:16:21.163Z,99.90
2022-08-05T18:18:49.946Z,99.90
2022-08-05T18:21:21.416Z,99.90
2022-08-05T18:23:53.675Z,99.90
2022-08-05T18:26:22.293Z,99.90
2022-08-05T18:28:56.990Z,99.90
2022-08-05T18:31:24.490Z,99.90
2022-08-05T18:33:52.539Z,99.90
2022-08-05T18:36:19.519Z,99.90
2022-08-05T18:38:46.895Z,99.90
2022-08-05T18:41:55.477Z,99.90
2022-08-05T18:44:06.455Z,99.90
2022-08-05T18:46:34.742Z,99.90
2022-08-05T18:49:22.034Z,99.90
2022-08-05T18:52:09.066Z,99.90
2022-08-05T18:54:41.226Z,99.90
2022-08-05T18:57:15.353Z,99.90
2022-08-05T19:00:01.427Z,99.90
2022-08-05T19:02:29.634Z,99.90
2022-08-05T19:05:02.459Z,99.90
2022-08-05T19:07:48.126Z,99.90
2022-08-05T19:10:26.422Z,99.90
2022-08-05T19:12:53.586Z,99.90
2022-08-05T19:15:58.167Z,99.90
2022-08-05T19:18:10.265Z,99.90
2022-08-05T19:20:41.509Z,99.90
2022-08-05T19:23:22.580Z,99.90
2022-08-05T19:26:01.950Z,99.90
2022-08-05T19:28:30.988Z,99.90
2022-08-05T19:30:57.972Z,99.90
2022-08-05T19:33:35.302Z,99.90
2022-08-05T19:36:06.355Z,99.90
2022-08-05T19:38:36.607Z,99.90
2022-08-05T19:41:08.895Z,99.90
2022-08-05T19:44:06.730Z,99.90
2022-08-05T19:46:29.791Z,99.90
2022-08-05T19:49:06.188Z,99.90
2022-08-05T19:52:05.732Z,99.90
2022-08-05T19:54:29.754Z,99.90
2022-08-05T19:57:09.871Z,99.90
2022-08-05T20:02:23.044Z,99.90
2022-08-05T20:04:50.458Z,99.90
2022-08-05T20:07:48.107Z,99.90
2022-08-05T20:10:13.590Z,99.90
2022-08-05T20:12:47.966Z,99.90
2022-08-05T20:15:23.128Z,99.90
2022-08-05T20:18:10.333Z,99.90
2022-08-05T20:20:55.366Z,99.90
2022-08-05T20:23:39.472Z,99.90
2022-08-05T20:26:16.046Z,99.90
2022-08-05T20:28:44.969Z,99.90
2022-08-05T20:31:11.850Z,99.90
2022-08-05T20:33:38.588Z,99.90
2022-08-05T20:36:12.031Z,99.90
2022-08-05T20:38:53.758Z,99.90
2022-08-05T20:41:27.367Z,99.90
2022-08-05T20:44:19.257Z,99.90
2022-08-05T20:46:58.795Z,99.90
2022-08-05T20:49:26.145Z,99.90
2022-08-05T20:51:54.664Z,99.90
2022-08-05T20:54:25.442Z,99.90
2022-08-05T20:57:09.263Z,99.90
2022-08-05T21:00:10.259Z,99.90
2022-08-05T21:02:28.489Z,99.90
2022-08-05T21:04:55.454Z,99.90
2022-08-05T21:07:24.111Z,99.90
2022-08-05T21:09:53.755Z,99.90
2022-08-05T21:12:21.924Z,99.90
2022-08-05T21:14:53.955Z,99.90
2022-08-05T21:17:21.927Z,99.90
2022-08-05T21:19:50.376Z,99.90
2022-08-05T21:22:18.633Z,99.90
2022-08-05T21:24:52.045Z,99.90
2022-08-05T21:27:25.518Z,99.90
2022-08-05T21:29:57.535Z,99.90
2022-08-05T21:32:27.122Z,99.90
2022-08-05T21:35:16.740Z,99.90
2022-08-05T21:37:47.444Z,99.90
2022-08-05T21:40:23.207Z,99.90
2022-08-05T21:42:51.905Z,99.90
2022-08-05T21:45:24.902Z,99.90
2022-08-05T21:48:08.206Z,99.90
2022-08-05T21:50:36.614Z,99.90
2022-08-05T21:53:16.121Z,99.90
2022-08-05T21:56:05.182Z,99.90
2022-08-05T21:58:32.013Z,99.90
2022-08-05T22:00:59.612Z,99.90
2022-08-05T22:03:48.974Z,99.90
2022-08-05T22:06:13.194Z,99.90
2022-08-05T22:08:42.437Z,99.90
2022-08-05T22:11:15.727Z,99.90
2022-08-05T22:14:19.488Z,99.90
2022-08-05T22:16:41.969Z,99.90
2022-08-05T22:20:00.866Z,99.90
2022-08-05T22:22:05.504Z,99.90
2022-08-05T22:24:51.763Z,99.90
2022-08-05T22:28:09.152Z,99.90
2022-08-05T22:30:24.701Z,99.90
2022-08-05T22:32:59.394Z,99.90
2022-08-05T22:35:26.459Z,99.90
2022-08-05T22:37:59.675Z,99.90
2022-08-05T22:40:27.309Z,99.90
2022-08-05T22:42:58.452Z,99.90
2022-08-05T22:45:26.429Z,99.90
2022-08-05T22:47:57.220Z,99.90
2022-08-05T22:50:27.816Z,99.90
2022-08-05T22:52:55.353Z,99.90
2022-08-05T22:55:24.244Z,99.90
2022-08-05T22:57:53.982Z,99.90
2022-08-05T23:00:23.492Z,99.90
2022-08-05T23:02:53.125Z,99.90
2022-08-05T23:05:22.293Z,99.90
2022-08-05T23:07:50.975Z,99.90
2022-08-05T23:10:20.910Z,99.90
2022-08-05T23:12:54.549Z,99.90
2022-08-05T23:15:26.945Z,99.90
2022-08-05T23:18:00.923Z,99.90
2022-08-05T23:20:32.243Z,99.90
2022-08-05T23:23:05.738Z,99.90
2022-08-05T23:25:51.863Z,99.90
2022-08-05T23:28:20.874Z,99.90
2022-08-05T23:30:53.322Z,99.90
2022-08-05T23:33:26.141Z,99.90
2022-08-05T23:36:10.065Z,99.90
2022-08-05T23:38:37.873Z,99.90
2022-08-05T23:41:04.902Z,99.90
2022-08-05T23:44:04.365Z,99.90
2022-08-05T23:46:21.617Z,99.90
2022-08-05T23:49:01.029Z,99.90
2022-08-05T23:51:53.985Z,99.90
2022-08-05T23:54:34.265Z,99.90
2022-08-05T23:57:07.074Z,99.90
